sensor_id;sensor_type;location;lat;lon;timestamp;P1;durP1;ratioP1;P2;durP2;ratioP2
70850;SDS011;58475;49.662;9.636;2022-12-18T00:02:15;32.70;;;16.57;;
70850;SDS011;58475;49.662;9.636;2022-12-18T00:04:40;33.40;;;17.07;;
70850;SDS011;58475;49.662;9.636;2022-12-18T00:07:06;29.40;;;17.50;;
70850;SDS011;58475;49.662;9.636;2022-12-18T00:09:32;37.23;;;16.93;;
70850;SDS011;58475;49.662;9.636;2022-12-18T00:11:57;33.90;;;16.57;;
70850;SDS011;58475;49.662;9.636;2022-12-18T00:14:22;34.77;;;15.20;;
70850;SDS011;58475;49.662;9.636;2022-12-18T00:16:48;33.00;;;16.97;;
70850;SDS011;58475;49.662;9.636;2022-12-18T00:19:14;31.37;;;17.50;;
70850;SDS011;58475;49.662;9.636;2022-12-18T00:21:39;27.40;;;15.33;;
70850;SDS011;58475;49.662;9.636;2022-12-18T00:24:06;37.20;;;18.60;;
70850;SDS011;58475;49.662;9.636;2022-12-18T00:26:32;29.67;;;15.03;;
70850;SDS011;58475;49.662;9.636;2022-12-18T00:29:05;37.27;;;17.50;;
70850;SDS011;58475;49.662;9.636;2022-12-18T00:31:32;30.73;;;15.93;;
70850;SDS011;58475;49.662;9.636;2022-12-18T00:34:00;29.37;;;14.80;;
70850;SDS011;58475;49.662;9.636;2022-12-18T00:36:27;28.77;;;15.67;;
70850;SDS011;58475;49.662;9.636;2022-12-18T00:38:55;34.17;;;15.97;;
70850;SDS011;58475;49.662;9.636;2022-12-18T00:41:21;34.00;;;15.67;;
70850;SDS011;58475;49.662;9.636;2022-12-18T00:44:07;36.63;;;16.13;;
70850;SDS011;58475;49.662;9.636;2022-12-18T00:46:34;33.83;;;16.97;;
70850;SDS011;58475;49.662;9.636;2022-12-18T00:48:59;27.97;;;15.07;;
70850;SDS011;58475;49.662;9.636;2022-12-18T00:51:25;27.90;;;14.47;;
70850;SDS011;58475;49.662;9.636;2022-12-18T00:53:51;25.97;;;14.60;;
70850;SDS011;58475;49.662;9.636;2022-12-18T00:56:17;30.13;;;15.20;;
70850;SDS011;58475;49.662;9.636;2022-12-18T00:58:43;27.47;;;14.77;;
70850;SDS011;58475;49.662;9.636;2022-12-18T01:01:09;33.60;;;17.37;;
70850;SDS011;58475;49.662;9.636;2022-12-18T01:03:35;28.80;;;16.50;;
70850;SDS011;58475;49.662;9.636;2022-12-18T01:06:05;29.17;;;15.00;;
70850;SDS011;58475;49.662;9.636;2022-12-18T01:08:35;33.00;;;17.60;;
70850;SDS011;58475;49.662;9.636;2022-12-18T01:11:06;31.53;;;16.40;;
70850;SDS011;58475;49.662;9.636;2022-12-18T01:13:32;26.27;;;14.97;;
70850;SDS011;58475;49.662;9.636;2022-12-18T01:15:58;29.17;;;16.10;;
70850;SDS011;58475;49.662;9.636;2022-12-18T01:18:24;32.13;;;16.40;;
70850;SDS011;58475;49.662;9.636;2022-12-18T01:20:49;28.33;;;15.47;;
70850;SDS011;58475;49.662;9.636;2022-12-18T01:23:15;31.10;;;15.60;;
70850;SDS011;58475;49.662;9.636;2022-12-18T01:25:41;27.50;;;15.37;;
70850;SDS011;58475;49.662;9.636;2022-12-18T01:28:09;28.63;;;14.90;;
70850;SDS011;58475;49.662;9.636;2022-12-18T01:30:34;34.23;;;15.70;;
70850;SDS011;58475;49.662;9.636;2022-12-18T01:33:00;25.17;;;13.83;;
70850;SDS011;58475;49.662;9.636;2022-12-18T01:35:29;32.20;;;16.30;;
70850;SDS011;58475;49.662;9.636;2022-12-18T01:37:54;31.23;;;15.17;;
70850;SDS011;58475;49.662;9.636;2022-12-18T01:40:20;25.87;;;14.47;;
70850;SDS011;58475;49.662;9.636;2022-12-18T01:42:49;34.93;;;16.20;;
70850;SDS011;58475;49.662;9.636;2022-12-18T01:45:23;38.03;;;17.83;;
70850;SDS011;58475;49.662;9.636;2022-12-18T01:47:55;29.00;;;15.60;;
70850;SDS011;58475;49.662;9.636;2022-12-18T01:52:56;32.90;;;15.90;;
70850;SDS011;58475;49.662;9.636;2022-12-18T01:55:31;28.73;;;15.40;;
70850;SDS011;58475;49.662;9.636;2022-12-18T01:58:02;29.47;;;14.23;;
70850;SDS011;58475;49.662;9.636;2022-12-18T02:00:29;27.03;;;13.23;;
70850;SDS011;58475;49.662;9.636;2022-12-18T02:02:55;37.13;;;14.17;;
70850;SDS011;58475;49.662;9.636;2022-12-18T02:05:43;28.63;;;14.70;;
70850;SDS011;58475;49.662;9.636;2022-12-18T02:08:20;24.80;;;13.33;;
70850;SDS011;58475;49.662;9.636;2022-12-18T02:10:54;29.17;;;14.20;;
70850;SDS011;58475;49.662;9.636;2022-12-18T02:18:38;26.63;;;14.35;;
70850;SDS011;58475;49.662;9.636;2022-12-18T02:21:12;25.70;;;13.43;;
70850;SDS011;58475;49.662;9.636;2022-12-18T02:23:56;34.57;;;15.63;;
70850;SDS011;58475;49.662;9.636;2022-12-18T02:26:34;25.30;;;13.30;;
70850;SDS011;58475;49.662;9.636;2022-12-18T02:29:15;28.20;;;13.60;;
70850;SDS011;58475;49.662;9.636;2022-12-18T02:31:48;24.37;;;13.07;;
70850;SDS011;58475;49.662;9.636;2022-12-18T02:34:20;32.17;;;14.73;;
70850;SDS011;58475;49.662;9.636;2022-12-18T02:36:49;28.57;;;13.30;;
70850;SDS011;58475;49.662;9.636;2022-12-18T02:39:16;26.13;;;13.93;;
70850;SDS011;58475;49.662;9.636;2022-12-18T02:41:55;31.07;;;13.30;;
70850;SDS011;58475;49.662;9.636;2022-12-18T02:44:23;25.77;;;13.97;;
70850;SDS011;58475;49.662;9.636;2022-12-18T02:46:49;30.40;;;15.07;;
70850;SDS011;58475;49.662;9.636;2022-12-18T02:51:51;34.07;;;14.63;;
70850;SDS011;58475;49.662;9.636;2022-12-18T02:54:57;22.33;;;13.30;;
70850;SDS011;58475;49.662;9.636;2022-12-18T03:00:10;22.50;;;11.10;;
70850;SDS011;58475;49.662;9.636;2022-12-18T03:02:42;28.67;;;13.00;;
70850;SDS011;58475;49.662;9.636;2022-12-18T03:05:41;25.13;;;13.37;;
70850;SDS011;58475;49.662;9.636;2022-12-18T03:08:18;24.77;;;12.43;;
70850;SDS011;58475;49.662;9.636;2022-12-18T03:11:08;38.20;;;17.07;;
70850;SDS011;58475;49.662;9.636;2022-12-18T03:13:45;34.13;;;14.87;;
70850;SDS011;58475;49.662;9.636;2022-12-18T03:16:16;32.40;;;14.03;;
70850;SDS011;58475;49.662;9.636;2022-12-18T03:18:49;32.40;;;16.37;;
70850;SDS011;58475;49.662;9.636;2022-12-18T03:21:20;27.00;;;15.73;;
70850;SDS011;58475;49.662;9.636;2022-12-18T03:23:50;23.77;;;13.18;;
70850;SDS011;58475;49.662;9.636;2022-12-18T03:26:19;31.83;;;14.43;;
70850;SDS011;58475;49.662;9.636;2022-12-18T03:28:55;25.37;;;13.90;;
70850;SDS011;58475;49.662;9.636;2022-12-18T03:31:25;23.57;;;13.30;;
70850;SDS011;58475;49.662;9.636;2022-12-18T03:33:55;26.03;;;13.10;;
70850;SDS011;58475;49.662;9.636;2022-12-18T03:36:31;22.93;;;11.90;;
70850;SDS011;58475;49.662;9.636;2022-12-18T03:38:57;32.83;;;14.63;;
70850;SDS011;58475;49.662;9.636;2022-12-18T03:41:30;29.07;;;13.90;;
70850;SDS011;58475;49.662;9.636;2022-12-18T03:49:36;27.13;;;13.90;;
70850;SDS011;58475;49.662;9.636;2022-12-18T03:52:16;23.57;;;13.03;;
70850;SDS011;58475;49.662;9.636;2022-12-18T03:54:48;25.53;;;13.13;;
70850;SDS011;58475;49.662;9.636;2022-12-18T03:57:16;25.60;;;13.50;;
70850;SDS011;58475;49.662;9.636;2022-12-18T03:59:47;23.03;;;13.00;;
70850;SDS011;58475;49.662;9.636;2022-12-18T04:02:17;26.60;;;14.82;;
70850;SDS011;58475;49.662;9.636;2022-12-18T04:04:44;24.33;;;12.57;;
70850;SDS011;58475;49.662;9.636;2022-12-18T04:07:13;25.77;;;13.37;;
70850;SDS011;58475;49.662;9.636;2022-12-18T04:09:42;23.67;;;12.70;;
70850;SDS011;58475;49.662;9.636;2022-12-18T04:12:12;26.07;;;12.63;;
70850;SDS011;58475;49.662;9.636;2022-12-18T04:14:37;22.13;;;12.30;;
70850;SDS011;58475;49.662;9.636;2022-12-18T04:17:06;23.03;;;12.77;;
70850;SDS011;58475;49.662;9.636;2022-12-18T04:19:32;29.90;;;13.97;;
70850;SDS011;58475;49.662;9.636;2022-12-18T04:21:59;24.63;;;12.20;;
70850;SDS011;58475;49.662;9.636;2022-12-18T04:24:28;26.90;;;13.47;;
70850;SDS011;58475;49.662;9.636;2022-12-18T04:29:38;18.57;;;10.63;;
70850;SDS011;58475;49.662;9.636;2022-12-18T04:32:04;23.93;;;13.00;;
70850;SDS011;58475;49.662;9.636;2022-12-18T04:34:31;19.80;;;11.77;;
70850;SDS011;58475;49.662;9.636;2022-12-18T04:36:57;35.57;;;16.00;;
70850;SDS011;58475;49.662;9.636;2022-12-18T04:39:24;29.13;;;14.70;;
70850;SDS011;58475;49.662;9.636;2022-12-18T04:41:52;29.97;;;15.60;;
70850;SDS011;58475;49.662;9.636;2022-12-18T04:44:18;32.73;;;13.73;;
70850;SDS011;58475;49.662;9.636;2022-12-18T04:46:43;24.63;;;12.83;;
70850;SDS011;58475;49.662;9.636;2022-12-18T04:49:09;25.30;;;14.00;;
70850;SDS011;58475;49.662;9.636;2022-12-18T04:51:36;22.50;;;12.00;;
70850;SDS011;58475;49.662;9.636;2022-12-18T04:54:02;24.93;;;13.30;;
70850;SDS011;58475;49.662;9.636;2022-12-18T04:56:29;24.33;;;12.93;;
70850;SDS011;58475;49.662;9.636;2022-12-18T04:58:56;25.87;;;14.27;;
70850;SDS011;58475;49.662;9.636;2022-12-18T05:01:21;24.50;;;13.97;;
70850;SDS011;58475;49.662;9.636;2022-12-18T05:03:47;26.97;;;12.70;;
70850;SDS011;58475;49.662;9.636;2022-12-18T05:06:12;23.60;;;12.30;;
70850;SDS011;58475;49.662;9.636;2022-12-18T05:08:38;28.10;;;13.10;;
70850;SDS011;58475;49.662;9.636;2022-12-18T05:11:05;27.17;;;13.67;;
70850;SDS011;58475;49.662;9.636;2022-12-18T05:13:32;29.20;;;14.13;;
70850;SDS011;58475;49.662;9.636;2022-12-18T05:15:59;25.83;;;14.17;;
70850;SDS011;58475;49.662;9.636;2022-12-18T05:18:25;27.10;;;13.40;;
70850;SDS011;58475;49.662;9.636;2022-12-18T05:20:51;31.50;;;13.00;;
70850;SDS011;58475;49.662;9.636;2022-12-18T05:23:18;24.73;;;12.03;;
70850;SDS011;58475;49.662;9.636;2022-12-18T05:25:50;23.57;;;13.03;;
70850;SDS011;58475;49.662;9.636;2022-12-18T05:28:20;22.20;;;11.77;;
70850;SDS011;58475;49.662;9.636;2022-12-18T05:30:47;26.40;;;11.70;;
70850;SDS011;58475;49.662;9.636;2022-12-18T05:33:17;21.37;;;11.13;;
70850;SDS011;58475;49.662;9.636;2022-12-18T05:35:43;21.60;;;12.47;;
70850;SDS011;58475;49.662;9.636;2022-12-18T05:38:09;23.87;;;12.30;;
70850;SDS011;58475;49.662;9.636;2022-12-18T05:40:35;23.93;;;12.90;;
70850;SDS011;58475;49.662;9.636;2022-12-18T05:43:01;24.77;;;12.23;;
70850;SDS011;58475;49.662;9.636;2022-12-18T05:45:27;22.83;;;12.63;;
70850;SDS011;58475;49.662;9.636;2022-12-18T05:47:53;30.90;;;13.00;;
70850;SDS011;58475;49.662;9.636;2022-12-18T05:50:18;24.70;;;12.57;;
70850;SDS011;58475;49.662;9.636;2022-12-18T05:52:44;24.80;;;11.47;;
70850;SDS011;58475;49.662;9.636;2022-12-18T05:55:09;24.30;;;12.13;;
70850;SDS011;58475;49.662;9.636;2022-12-18T05:57:35;27.80;;;12.77;;
70850;SDS011;58475;49.662;9.636;2022-12-18T06:00:00;24.13;;;12.23;;
70850;SDS011;58475;49.662;9.636;2022-12-18T06:02:26;21.33;;;12.97;;
70850;SDS011;58475;49.662;9.636;2022-12-18T06:04:54;24.23;;;13.13;;
70850;SDS011;58475;49.662;9.636;2022-12-18T06:07:20;31.47;;;14.47;;
70850;SDS011;58475;49.662;9.636;2022-12-18T06:09:45;35.27;;;15.77;;
70850;SDS011;58475;49.662;9.636;2022-12-18T06:12:11;32.77;;;14.87;;
70850;SDS011;58475;49.662;9.636;2022-12-18T06:14:36;27.00;;;14.03;;
70850;SDS011;58475;49.662;9.636;2022-12-18T06:17:01;34.87;;;15.10;;
70850;SDS011;58475;49.662;9.636;2022-12-18T06:19:27;26.63;;;13.03;;
70850;SDS011;58475;49.662;9.636;2022-12-18T06:21:53;23.13;;;13.53;;
70850;SDS011;58475;49.662;9.636;2022-12-18T06:24:18;18.43;;;9.80;;
70850;SDS011;58475;49.662;9.636;2022-12-18T06:26:44;26.70;;;12.87;;
70850;SDS011;58475;49.662;9.636;2022-12-18T06:29:09;31.97;;;14.80;;
70850;SDS011;58475;49.662;9.636;2022-12-18T06:31:35;24.60;;;13.30;;
70850;SDS011;58475;49.662;9.636;2022-12-18T06:34:06;27.17;;;13.23;;
70850;SDS011;58475;49.662;9.636;2022-12-18T06:36:34;28.87;;;15.27;;
70850;SDS011;58475;49.662;9.636;2022-12-18T06:39:00;28.83;;;13.87;;
70850;SDS011;58475;49.662;9.636;2022-12-18T06:41:26;38.90;;;18.10;;
70850;SDS011;58475;49.662;9.636;2022-12-18T06:43:51;32.43;;;14.23;;
70850;SDS011;58475;49.662;9.636;2022-12-18T06:46:17;21.30;;;12.97;;
70850;SDS011;58475;49.662;9.636;2022-12-18T06:48:43;25.90;;;13.97;;
70850;SDS011;58475;49.662;9.636;2022-12-18T06:51:13;25.57;;;12.23;;
70850;SDS011;58475;49.662;9.636;2022-12-18T06:53:41;22.20;;;13.23;;
70850;SDS011;58475;49.662;9.636;2022-12-18T06:56:06;32.20;;;14.53;;
70850;SDS011;58475;49.662;9.636;2022-12-18T06:58:32;39.67;;;18.83;;
70850;SDS011;58475;49.662;9.636;2022-12-18T07:01:01;38.93;;;16.70;;
70850;SDS011;58475;49.662;9.636;2022-12-18T07:03:28;23.88;;;13.27;;
70850;SDS011;58475;49.662;9.636;2022-12-18T07:05:54;28.57;;;13.80;;
70850;SDS011;58475;49.662;9.636;2022-12-18T07:08:20;28.83;;;15.00;;
70850;SDS011;58475;49.662;9.636;2022-12-18T07:10:49;38.63;;;18.57;;
70850;SDS011;58475;49.662;9.636;2022-12-18T07:13:15;42.43;;;17.67;;
70850;SDS011;58475;49.662;9.636;2022-12-18T07:15:41;31.50;;;14.80;;
70850;SDS011;58475;49.662;9.636;2022-12-18T07:18:06;36.63;;;17.37;;
70850;SDS011;58475;49.662;9.636;2022-12-18T07:20:37;31.00;;;15.57;;
70850;SDS011;58475;49.662;9.636;2022-12-18T07:23:03;33.42;;;16.50;;
70850;SDS011;58475;49.662;9.636;2022-12-18T07:25:33;30.83;;;15.50;;
70850;SDS011;58475;49.662;9.636;2022-12-18T07:28:02;36.93;;;18.63;;
70850;SDS011;58475;49.662;9.636;2022-12-18T07:30:29;34.83;;;18.43;;
70850;SDS011;58475;49.662;9.636;2022-12-18T07:32:55;43.67;;;20.47;;
70850;SDS011;58475;49.662;9.636;2022-12-18T07:35:21;40.57;;;20.10;;
70850;SDS011;58475;49.662;9.636;2022-12-18T07:37:46;39.33;;;21.17;;
70850;SDS011;58475;49.662;9.636;2022-12-18T07:40:12;39.57;;;20.23;;
70850;SDS011;58475;49.662;9.636;2022-12-18T07:42:37;38.73;;;19.17;;
70850;SDS011;58475;49.662;9.636;2022-12-18T07:45:03;35.17;;;18.53;;
70850;SDS011;58475;49.662;9.636;2022-12-18T07:47:29;38.60;;;18.47;;
70850;SDS011;58475;49.662;9.636;2022-12-18T07:49:56;38.43;;;19.53;;
70850;SDS011;58475;49.662;9.636;2022-12-18T07:52:21;41.20;;;20.60;;
70850;SDS011;58475;49.662;9.636;2022-12-18T07:54:47;39.03;;;19.37;;
70850;SDS011;58475;49.662;9.636;2022-12-18T07:57:16;38.67;;;20.87;;
70850;SDS011;58475;49.662;9.636;2022-12-18T07:59:42;42.60;;;21.70;;
70850;SDS011;58475;49.662;9.636;2022-12-18T08:02:08;43.70;;;21.73;;
70850;SDS011;58475;49.662;9.636;2022-12-18T08:04:34;39.97;;;19.93;;
70850;SDS011;58475;49.662;9.636;2022-12-18T08:06:59;36.97;;;19.17;;
70850;SDS011;58475;49.662;9.636;2022-12-18T08:09:25;32.50;;;16.63;;
70850;SDS011;58475;49.662;9.636;2022-12-18T08:11:51;34.50;;;18.77;;
70850;SDS011;58475;49.662;9.636;2022-12-18T08:14:16;48.47;;;21.83;;
70850;SDS011;58475;49.662;9.636;2022-12-18T08:16:42;52.73;;;23.70;;
70850;SDS011;58475;49.662;9.636;2022-12-18T08:19:07;52.13;;;25.20;;
70850;SDS011;58475;49.662;9.636;2022-12-18T08:21:35;56.90;;;26.33;;
70850;SDS011;58475;49.662;9.636;2022-12-18T08:24:02;47.93;;;21.10;;
70850;SDS011;58475;49.662;9.636;2022-12-18T08:26:29;50.03;;;22.37;;
70850;SDS011;58475;49.662;9.636;2022-12-18T08:28:56;41.43;;;20.20;;
70850;SDS011;58475;49.662;9.636;2022-12-18T08:31:23;30.60;;;15.37;;
70850;SDS011;58475;49.662;9.636;2022-12-18T08:33:50;44.30;;;18.83;;
70850;SDS011;58475;49.662;9.636;2022-12-18T08:36:17;38.60;;;19.43;;
70850;SDS011;58475;49.662;9.636;2022-12-18T08:38:43;39.07;;;18.83;;
70850;SDS011;58475;49.662;9.636;2022-12-18T08:41:10;42.07;;;20.90;;
70850;SDS011;58475;49.662;9.636;2022-12-18T08:43:36;51.77;;;25.87;;
70850;SDS011;58475;49.662;9.636;2022-12-18T08:46:21;45.17;;;23.00;;
70850;SDS011;58475;49.662;9.636;2022-12-18T08:48:53;39.00;;;21.57;;
70850;SDS011;58475;49.662;9.636;2022-12-18T08:51:20;44.27;;;21.10;;
70850;SDS011;58475;49.662;9.636;2022-12-18T08:53:46;42.40;;;18.90;;
70850;SDS011;58475;49.662;9.636;2022-12-18T08:56:12;38.70;;;20.27;;
70850;SDS011;58475;49.662;9.636;2022-12-18T08:58:39;37.43;;;19.50;;
70850;SDS011;58475;49.662;9.636;2022-12-18T09:01:06;48.13;;;22.27;;
70850;SDS011;58475;49.662;9.636;2022-12-18T09:03:36;45.78;;;23.23;;
70850;SDS011;58475;49.662;9.636;2022-12-18T09:06:02;57.13;;;25.67;;
70850;SDS011;58475;49.662;9.636;2022-12-18T09:08:28;46.80;;;24.73;;
70850;SDS011;58475;49.662;9.636;2022-12-18T09:10:54;56.17;;;27.40;;
70850;SDS011;58475;49.662;9.636;2022-12-18T09:13:20;52.27;;;25.87;;
70850;SDS011;58475;49.662;9.636;2022-12-18T09:15:51;53.87;;;25.47;;
70850;SDS011;58475;49.662;9.636;2022-12-18T09:18:18;51.80;;;23.23;;
70850;SDS011;58475;49.662;9.636;2022-12-18T09:20:45;51.30;;;24.17;;
70850;SDS011;58475;49.662;9.636;2022-12-18T09:23:11;68.83;;;35.33;;
70850;SDS011;58475;49.662;9.636;2022-12-18T09:25:37;63.47;;;29.70;;
70850;SDS011;58475;49.662;9.636;2022-12-18T09:28:04;73.07;;;34.17;;
70850;SDS011;58475;49.662;9.636;2022-12-18T09:30:37;70.23;;;35.37;;
70850;SDS011;58475;49.662;9.636;2022-12-18T09:33:04;81.73;;;37.00;;
70850;SDS011;58475;49.662;9.636;2022-12-18T09:35:29;91.07;;;38.63;;
70850;SDS011;58475;49.662;9.636;2022-12-18T09:37:55;70.83;;;34.93;;
70850;SDS011;58475;49.662;9.636;2022-12-18T09:40:21;68.80;;;32.23;;
70850;SDS011;58475;49.662;9.636;2022-12-18T09:43:11;75.57;;;34.33;;
70850;SDS011;58475;49.662;9.636;2022-12-18T09:45:43;80.40;;;35.67;;
70850;SDS011;58475;49.662;9.636;2022-12-18T09:48:16;63.57;;;29.90;;
70850;SDS011;58475;49.662;9.636;2022-12-18T09:50:47;61.13;;;27.57;;
70850;SDS011;58475;49.662;9.636;2022-12-18T09:53:19;57.87;;;28.83;;
70850;SDS011;58475;49.662;9.636;2022-12-18T09:55:47;60.97;;;28.50;;
70850;SDS011;58475;49.662;9.636;2022-12-18T10:01:16;61.63;;;27.87;;
70850;SDS011;58475;49.662;9.636;2022-12-18T10:03:46;58.43;;;27.77;;
70850;SDS011;58475;49.662;9.636;2022-12-18T10:09:20;45.80;;;23.90;;
70850;SDS011;58475;49.662;9.636;2022-12-18T10:20:05;45.00;;;20.63;;
70850;SDS011;58475;49.662;9.636;2022-12-18T10:22:48;47.67;;;19.90;;
70850;SDS011;58475;49.662;9.636;2022-12-18T10:25:39;52.50;;;20.57;;
70850;SDS011;58475;49.662;9.636;2022-12-18T10:28:12;43.05;;;19.90;;
70850;SDS011;58475;49.662;9.636;2022-12-18T10:30:40;43.90;;;18.80;;
70850;SDS011;58475;49.662;9.636;2022-12-18T10:33:10;43.23;;;18.10;;
70850;SDS011;58475;49.662;9.636;2022-12-18T10:35:43;38.00;;;16.43;;
70850;SDS011;58475;49.662;9.636;2022-12-18T10:43:14;47.20;;;18.50;;
70850;SDS011;58475;49.662;9.636;2022-12-18T10:45:41;42.23;;;17.03;;
70850;SDS011;58475;49.662;9.636;2022-12-18T10:48:23;40.43;;;17.80;;
70850;SDS011;58475;49.662;9.636;2022-12-18T10:50:49;58.93;;;25.43;;
70850;SDS011;58475;49.662;9.636;2022-12-18T10:53:21;48.17;;;20.80;;
70850;SDS011;58475;49.662;9.636;2022-12-18T10:55:48;42.03;;;18.07;;
70850;SDS011;58475;49.662;9.636;2022-12-18T10:58:22;46.57;;;19.20;;
70850;SDS011;58475;49.662;9.636;2022-12-18T11:03:38;42.28;;;16.70;;
70850;SDS011;58475;49.662;9.636;2022-12-18T11:08:39;44.92;;;17.48;;
70850;SDS011;58475;49.662;9.636;2022-12-18T11:11:24;37.47;;;14.70;;
70850;SDS011;58475;49.662;9.636;2022-12-18T11:16:25;37.27;;;14.10;;
70850;SDS011;58475;49.662;9.636;2022-12-18T11:18:52;34.88;;;13.55;;
70850;SDS011;58475;49.662;9.636;2022-12-18T11:21:17;36.67;;;13.68;;
70850;SDS011;58475;49.662;9.636;2022-12-18T11:26:14;30.23;;;12.20;;
70850;SDS011;58475;49.662;9.636;2022-12-18T11:28:47;25.37;;;10.50;;
70850;SDS011;58475;49.662;9.636;2022-12-18T11:31:24;34.03;;;13.60;;
70850;SDS011;58475;49.662;9.636;2022-12-18T11:34:12;31.48;;;13.43;;
70850;SDS011;58475;49.662;9.636;2022-12-18T11:36:51;30.70;;;13.13;;
70850;SDS011;58475;49.662;9.636;2022-12-18T11:42:19;42.65;;;14.98;;
70850;SDS011;58475;49.662;9.636;2022-12-18T11:44:54;61.57;;;24.53;;
70850;SDS011;58475;49.662;9.636;2022-12-18T11:47:31;30.90;;;14.43;;
70850;SDS011;58475;49.662;9.636;2022-12-18T11:50:08;36.35;;;13.93;;
70850;SDS011;58475;49.662;9.636;2022-12-18T11:52:41;42.58;;;17.90;;
70850;SDS011;58475;49.662;9.636;2022-12-18T11:55:18;34.08;;;13.07;;
70850;SDS011;58475;49.662;9.636;2022-12-18T12:00:23;34.70;;;13.55;;
70850;SDS011;58475;49.662;9.636;2022-12-18T12:39:19;46.50;;;20.20;;
70850;SDS011;58475;49.662;9.636;2022-12-18T12:41:51;30.67;;;13.45;;
70850;SDS011;58475;49.662;9.636;2022-12-18T12:44:41;35.72;;;14.68;;
70850;SDS011;58475;49.662;9.636;2022-12-18T12:47:16;29.67;;;11.80;;
70850;SDS011;58475;49.662;9.636;2022-12-18T12:49:45;36.25;;;14.18;;
70850;SDS011;58475;49.662;9.636;2022-12-18T12:52:33;28.67;;;12.02;;
70850;SDS011;58475;49.662;9.636;2022-12-18T12:55:04;31.90;;;12.70;;
70850;SDS011;58475;49.662;9.636;2022-12-18T12:57:38;30.25;;;12.30;;
70850;SDS011;58475;49.662;9.636;2022-12-18T13:00:11;28.10;;;11.38;;
70850;SDS011;58475;49.662;9.636;2022-12-18T13:10:39;29.40;;;12.27;;
70850;SDS011;58475;49.662;9.636;2022-12-18T13:18:11;31.80;;;14.15;;
70850;SDS011;58475;49.662;9.636;2022-12-18T13:31:08;32.70;;;14.15;;
70850;SDS011;58475;49.662;9.636;2022-12-18T13:36:01;33.47;;;14.18;;
70850;SDS011;58475;49.662;9.636;2022-12-18T13:40:59;30.25;;;13.27;;
70850;SDS011;58475;49.662;9.636;2022-12-18T13:43:30;27.55;;;13.13;;
70850;SDS011;58475;49.662;9.636;2022-12-18T13:51:35;32.13;;;13.40;;
70850;SDS011;58475;49.662;9.636;2022-12-18T13:54:18;29.42;;;12.73;;
70850;SDS011;58475;49.662;9.636;2022-12-18T13:56:45;25.67;;;11.73;;
70850;SDS011;58475;49.662;9.636;2022-12-18T14:02:27;33.35;;;12.30;;
70850;SDS011;58475;49.662;9.636;2022-12-18T14:04:38;29.38;;;11.45;;
70850;SDS011;58475;49.662;9.636;2022-12-18T14:09:40;30.40;;;12.18;;
70850;SDS011;58475;49.662;9.636;2022-12-18T14:12:28;26.58;;;12.02;;
70850;SDS011;58475;49.662;9.636;2022-12-18T14:21:00;30.55;;;11.90;;
70850;SDS011;58475;49.662;9.636;2022-12-18T14:23:35;28.55;;;11.48;;
70850;SDS011;58475;49.662;9.636;2022-12-18T14:28:57;30.33;;;12.95;;
70850;SDS011;58475;49.662;9.636;2022-12-18T14:31:29;31.73;;;14.27;;
70850;SDS011;58475;49.662;9.636;2022-12-18T14:33:57;33.20;;;14.68;;
70850;SDS011;58475;49.662;9.636;2022-12-18T14:36:25;40.42;;;18.33;;
70850;SDS011;58475;49.662;9.636;2022-12-18T14:38:57;38.00;;;16.30;;
70850;SDS011;58475;49.662;9.636;2022-12-18T14:43:51;37.53;;;15.88;;
70850;SDS011;58475;49.662;9.636;2022-12-18T14:48:50;36.97;;;17.35;;
70850;SDS011;58475;49.662;9.636;2022-12-18T14:51:20;32.35;;;13.73;;
70850;SDS011;58475;49.662;9.636;2022-12-18T14:53:49;33.10;;;15.00;;
70850;SDS011;58475;49.662;9.636;2022-12-18T14:56:19;31.67;;;13.35;;
70850;SDS011;58475;49.662;9.636;2022-12-18T14:59:32;32.42;;;14.38;;
70850;SDS011;58475;49.662;9.636;2022-12-18T15:01:45;32.10;;;13.90;;
70850;SDS011;58475;49.662;9.636;2022-12-18T15:04:26;37.20;;;16.05;;
70850;SDS011;58475;49.662;9.636;2022-12-18T15:09:35;36.03;;;14.02;;
70850;SDS011;58475;49.662;9.636;2022-12-18T15:12:01;38.35;;;16.65;;
70850;SDS011;58475;49.662;9.636;2022-12-18T15:16:55;40.53;;;18.75;;
70850;SDS011;58475;49.662;9.636;2022-12-18T15:19:22;35.75;;;17.52;;
70850;SDS011;58475;49.662;9.636;2022-12-18T15:22:00;38.83;;;18.93;;
70850;SDS011;58475;49.662;9.636;2022-12-18T15:24:27;38.75;;;18.45;;
70850;SDS011;58475;49.662;9.636;2022-12-18T15:27:00;33.87;;;16.13;;
70850;SDS011;58475;49.662;9.636;2022-12-18T15:29:26;38.67;;;15.83;;
70850;SDS011;58475;49.662;9.636;2022-12-18T15:31:59;34.23;;;16.17;;
70850;SDS011;58475;49.662;9.636;2022-12-18T15:34:26;32.97;;;15.03;;
70850;SDS011;58475;49.662;9.636;2022-12-18T15:36:53;30.67;;;13.13;;
70850;SDS011;58475;49.662;9.636;2022-12-18T15:39:18;30.70;;;13.73;;
70850;SDS011;58475;49.662;9.636;2022-12-18T15:41:47;28.17;;;12.67;;
70850;SDS011;58475;49.662;9.636;2022-12-18T15:44:31;32.20;;;13.77;;
70850;SDS011;58475;49.662;9.636;2022-12-18T15:46:57;30.03;;;13.03;;
70850;SDS011;58475;49.662;9.636;2022-12-18T15:49:23;31.30;;;13.17;;
70850;SDS011;58475;49.662;9.636;2022-12-18T15:51:53;28.17;;;12.03;;
70850;SDS011;58475;49.662;9.636;2022-12-18T15:54:21;27.27;;;11.90;;
70850;SDS011;58475;49.662;9.636;2022-12-18T15:57:11;27.23;;;11.70;;
70850;SDS011;58475;49.662;9.636;2022-12-18T15:59:54;40.27;;;17.13;;
70850;SDS011;58475;49.662;9.636;2022-12-18T16:02:23;52.28;;;21.17;;
70850;SDS011;58475;49.662;9.636;2022-12-18T16:04:50;37.63;;;17.67;;
70850;SDS011;58475;49.662;9.636;2022-12-18T16:07:17;40.40;;;19.00;;
70850;SDS011;58475;49.662;9.636;2022-12-18T16:09:43;40.00;;;18.27;;
70850;SDS011;58475;49.662;9.636;2022-12-18T16:12:15;39.70;;;18.90;;
70850;SDS011;58475;49.662;9.636;2022-12-18T16:14:44;44.53;;;17.77;;
70850;SDS011;58475;49.662;9.636;2022-12-18T16:17:10;38.97;;;17.33;;
70850;SDS011;58475;49.662;9.636;2022-12-18T16:19:37;35.33;;;17.33;;
70850;SDS011;58475;49.662;9.636;2022-12-18T16:22:03;36.30;;;17.77;;
70850;SDS011;58475;49.662;9.636;2022-12-18T16:24:29;33.77;;;14.77;;
70850;SDS011;58475;49.662;9.636;2022-12-18T16:26:57;34.77;;;14.93;;
70850;SDS011;58475;49.662;9.636;2022-12-18T16:29:24;36.23;;;16.17;;
70850;SDS011;58475;49.662;9.636;2022-12-18T16:32:01;37.17;;;16.90;;
70850;SDS011;58475;49.662;9.636;2022-12-18T16:34:31;40.37;;;17.93;;
70850;SDS011;58475;49.662;9.636;2022-12-18T16:36:59;36.80;;;15.67;;
70850;SDS011;58475;49.662;9.636;2022-12-18T16:39:26;35.13;;;15.10;;
70850;SDS011;58475;49.662;9.636;2022-12-18T16:41:52;36.87;;;16.87;;
70850;SDS011;58475;49.662;9.636;2022-12-18T16:44:18;34.43;;;16.30;;
70850;SDS011;58475;49.662;9.636;2022-12-18T16:46:45;34.40;;;14.73;;
70850;SDS011;58475;49.662;9.636;2022-12-18T16:49:11;31.73;;;14.33;;
70850;SDS011;58475;49.662;9.636;2022-12-18T16:51:37;34.13;;;13.57;;
70850;SDS011;58475;49.662;9.636;2022-12-18T16:54:03;32.67;;;13.17;;
70850;SDS011;58475;49.662;9.636;2022-12-18T16:56:29;31.50;;;13.37;;
70850;SDS011;58475;49.662;9.636;2022-12-18T16:58:56;33.43;;;13.77;;
70850;SDS011;58475;49.662;9.636;2022-12-18T17:01:23;35.53;;;14.93;;
70850;SDS011;58475;49.662;9.636;2022-12-18T17:03:56;37.63;;;14.70;;
70850;SDS011;58475;49.662;9.636;2022-12-18T17:06:24;47.53;;;20.40;;